createdAt,value
2023-04-25T00:02:11.072Z,6.70
2023-04-25T00:04:39.501Z,6.70
2023-04-25T00:07:07.238Z,6.60
2023-04-25T00:09:34.542Z,6.60
2023-04-25T00:12:02.579Z,6.60
2023-04-25T00:14:30.717Z,6.60
2023-04-25T00:16:57.634Z,6.70
2023-04-25T00:19:24.657Z,6.70
2023-04-25T00:21:51.765Z,6.70
2023-04-25T00:24:18.806Z,6.70
2023-04-25T00:26:45.924Z,6.60
2023-04-25T00:29:12.959Z,6.60
2023-04-25T00:31:40.006Z,6.60
2023-04-25T00:34:09.263Z,6.60
2023-04-25T00:36:37.334Z,6.60
2023-04-25T00:39:05.718Z,6.50
2023-04-25T00:41:34.416Z,6.50
2023-04-25T00:44:02.574Z,6.50
2023-04-25T00:46:30.088Z,6.50
2023-04-25T00:48:57.108Z,6.50
2023-04-25T00:51:26.198Z,6.60
2023-04-25T00:53:53.505Z,6.70
2023-04-25T00:56:21.393Z,6.80
2023-04-25T00:58:49.502Z,6.80
2023-04-25T01:01:17.605Z,6.90
2023-04-25T01:03:48.044Z,6.90
2023-04-25T01:06:15.153Z,6.90
2023-04-25T01:08:44.210Z,6.80
2023-04-25T01:11:11.249Z,6.80
2023-04-25T01:13:38.259Z,6.70
2023-04-25T01:16:06.766Z,6.80
2023-04-25T01:18:34.263Z,6.80
2023-04-25T01:21:12.165Z,6.80
2023-04-25T01:23:41.652Z,6.90
2023-04-25T01:26:11.284Z,6.90
2023-04-25T01:28:38.955Z,6.90
2023-04-25T01:31:06.940Z,6.90
2023-04-25T01:33:34.300Z,6.90
2023-04-25T01:36:01.445Z,6.80
2023-04-25T01:38:28.528Z,6.80
2023-04-25T01:40:56.415Z,6.70
2023-04-25T01:43:24.724Z,6.70
2023-04-25T01:46:14.450Z,6.60
2023-04-25T01:48:41.963Z,6.60
2023-04-25T01:51:09.126Z,6.50
2023-04-25T01:53:36.161Z,6.50
2023-04-25T01:56:04.762Z,6.60
2023-04-25T01:58:34.924Z,6.50
2023-04-25T02:01:14.151Z,6.50
2023-04-25T02:03:47.303Z,6.60
2023-04-25T02:06:23.618Z,6.50
2023-04-25T02:08:52.471Z,6.40
2023-04-25T02:11:19.483Z,6.40
2023-04-25T02:13:55.096Z,6.30
2023-04-25T02:16:37.217Z,6.30
2023-04-25T02:19:04.293Z,6.20
2023-04-25T02:21:31.605Z,6.30
2023-04-25T02:23:58.958Z,6.20
2023-04-25T02:26:28.966Z,6.20
2023-04-25T02:28:56.033Z,6.20
2023-04-25T02:31:23.220Z,6.20
2023-04-25T02:33:51.849Z,6.10
2023-04-25T02:36:19.196Z,6.20
2023-04-25T02:38:46.378Z,6.20
2023-04-25T02:41:13.519Z,6.20
2023-04-25T02:43:40.616Z,6.20
2023-04-25T02:46:07.687Z,6.30
2023-04-25T02:48:34.690Z,6.30
2023-04-25T02:51:01.664Z,6.40
2023-04-25T02:53:29.186Z,6.40
2023-04-25T02:55:59.323Z,6.50
2023-04-25T02:58:26.571Z,6.60
2023-04-25T03:00:55.330Z,6.60
2023-04-25T03:03:25.294Z,6.60
2023-04-25T03:05:53.490Z,6.60
2023-04-25T03:08:26.342Z,6.60
2023-04-25T03:10:56.640Z,6.70
2023-04-25T03:13:25.416Z,6.70
2023-04-25T03:15:52.454Z,6.90
2023-04-25T03:18:19.758Z,6.90
2023-04-25T03:20:47.730Z,6.90
2023-04-25T03:23:15.401Z,6.90
2023-04-25T03:25:43.305Z,6.90
2023-04-25T03:28:10.716Z,7.00
2023-04-25T03:30:37.907Z,7.00
2023-04-25T03:33:05.018Z,7.00
2023-04-25T03:35:32.041Z,7.00
2023-04-25T03:37:59.039Z,7.10
2023-04-25T03:40:30.569Z,7.10
2023-04-25T03:43:20.452Z,7.10
2023-04-25T03:50:14.617Z,7.10
2023-04-25T03:52:41.573Z,7.10
2023-04-25T03:55:09.693Z,7.00
2023-04-25T03:57:37.338Z,7.00
2023-04-25T04:00:05.329Z,7.00
2023-04-25T04:02:41.875Z,7.00
2023-04-25T04:05:11.746Z,7.00
2023-04-25T04:07:43.928Z,7.10
2023-04-25T04:10:12.953Z,7.10
2023-04-25T04:12:41.203Z,7.10
2023-04-25T04:15:08.908Z,7.10
2023-04-25T04:17:36.720Z,7.10
2023-04-25T04:20:04.834Z,7.00
2023-04-25T04:22:32.851Z,7.00
2023-04-25T04:25:06.940Z,7.00
2023-04-25T04:27:57.176Z,7.00
2023-04-25T04:30:43.527Z,7.00
2023-04-25T04:33:10.622Z,7.10
2023-04-25T04:35:38.315Z,7.20
2023-04-25T04:38:05.596Z,7.20
2023-04-25T04:40:35.918Z,7.30
2023-04-25T04:43:12.350Z,7.30
2023-04-25T04:45:52.259Z,7.30
2023-04-25T04:48:41.219Z,7.30
2023-04-25T04:51:22.431Z,7.20
2023-04-25T04:54:03.420Z,7.10
2023-04-25T04:56:46.787Z,7.00
2023-04-25T04:59:34.390Z,7.00
2023-04-25T05:02:14.452Z,7.00
2023-04-25T05:04:53.003Z,6.90
2023-04-25T05:07:40.247Z,6.90
2023-04-25T05:10:27.769Z,6.90
2023-04-25T05:13:11.137Z,7.00
2023-04-25T05:16:04.618Z,7.00
2023-04-25T05:18:40.200Z,7.10
2023-04-25T05:21:23.537Z,7.00
2023-04-25T05:24:16.567Z,7.00
2023-04-25T05:27:03.733Z,7.00
2023-04-25T05:29:56.783Z,7.00
2023-04-25T05:32:36.721Z,7.00
2023-04-25T05:35:04.332Z,7.00
2023-04-25T05:37:37.556Z,7.10
2023-04-25T05:40:11.314Z,7.00
2023-04-25T05:42:57.084Z,7.00
2023-04-25T05:45:44.263Z,7.00
2023-04-25T05:48:49.604Z,7.00
2023-04-25T05:51:51.994Z,7.10
2023-04-25T05:54:39.271Z,7.10
2023-04-25T05:57:06.263Z,7.10
2023-04-25T05:59:33.885Z,7.10
2023-04-25T06:02:01.965Z,7.00
2023-04-25T06:04:32.163Z,6.90
2023-04-25T06:06:59.236Z,6.90
2023-04-25T06:09:27.595Z,6.90
2023-04-25T06:11:55.013Z,7.00
2023-04-25T06:14:21.999Z,7.00
2023-04-25T06:16:50.893Z,6.90
2023-04-25T06:19:17.872Z,6.80
2023-04-25T06:21:45.548Z,6.70
2023-04-25T06:24:12.806Z,6.70
2023-04-25T06:26:39.828Z,6.60
2023-04-25T06:29:07.292Z,6.50
2023-04-25T06:31:34.965Z,6.50
2023-04-25T06:34:02.162Z,6.40
2023-04-25T06:36:31.462Z,6.30
2023-04-25T06:39:04.857Z,6.20
2023-04-25T06:41:33.520Z,6.10
2023-04-25T06:44:02.997Z,6.00
2023-04-25T06:46:51.269Z,5.90
2023-04-25T06:49:19.364Z,6.00
2023-04-25T06:51:46.390Z,6.00
2023-04-25T06:54:13.562Z,6.00
2023-04-25T06:56:49.149Z,6.00
2023-04-25T06:59:16.237Z,6.00
2023-04-25T07:01:45.550Z,6.00
2023-04-25T07:04:17.366Z,6.00
2023-04-25T07:06:51.839Z,6.00
2023-04-25T07:09:23.845Z,6.10
2023-04-25T07:11:52.125Z,6.20
2023-04-25T07:14:24.402Z,6.30
2023-04-25T07:16:51.530Z,6.30
2023-04-25T07:19:19.893Z,6.20
2023-04-25T07:21:46.927Z,6.30
2023-04-25T07:24:14.139Z,6.40
2023-04-25T07:26:45.977Z,6.50
2023-04-25T07:29:25.863Z,6.60
2023-04-25T07:31:52.897Z,6.80
2023-04-25T07:34:21.386Z,6.90
2023-04-25T07:36:48.378Z,7.00
2023-04-25T07:39:16.016Z,7.20
2023-04-25T07:41:43.152Z,7.20
2023-04-25T07:44:15.101Z,7.20
2023-04-25T07:46:42.088Z,7.30
2023-04-25T07:49:10.057Z,7.50
2023-04-25T07:51:37.098Z,7.60
2023-04-25T07:54:09.502Z,7.60
2023-04-25T07:56:51.443Z,7.70
2023-04-25T07:59:19.709Z,7.80
2023-04-25T08:01:47.182Z,7.70
2023-04-25T08:04:15.006Z,7.60
2023-04-25T08:06:54.788Z,7.70
2023-04-25T08:09:28.271Z,7.80
2023-04-25T08:11:56.561Z,7.80
2023-04-25T08:14:28.352Z,7.70
2023-04-25T08:16:55.407Z,7.80
2023-04-25T08:19:22.449Z,7.90
2023-04-25T08:21:49.511Z,8.00
2023-04-25T08:24:21.682Z,7.90
2023-04-25T08:26:48.842Z,7.90
2023-04-25T08:29:18.343Z,7.80
2023-04-25T08:31:45.623Z,7.80
2023-04-25T08:34:13.922Z,7.90
2023-04-25T08:36:46.098Z,7.80
2023-04-25T08:39:28.483Z,7.80
2023-04-25T08:42:22.973Z,8.00
2023-04-25T08:44:51.123Z,8.00
2023-04-25T08:47:22.711Z,8.10
2023-04-25T08:49:55.071Z,8.10
2023-04-25T08:52:24.627Z,8.20
2023-04-25T08:54:54.023Z,8.30
2023-04-25T08:57:22.288Z,8.30
2023-04-25T08:59:50.361Z,8.10
2023-04-25T09:02:21.087Z,7.80
2023-04-25T09:04:51.035Z,7.60
2023-04-25T09:07:22.185Z,7.70
2023-04-25T09:09:49.395Z,7.70
2023-04-25T09:12:21.845Z,7.70
2023-04-25T09:15:06.534Z,7.70
2023-04-25T09:17:57.926Z,7.70
2023-04-25T09:20:27.761Z,7.80
2023-04-25T09:23:06.452Z,8.00
2023-04-25T09:25:39.825Z,8.20
2023-04-25T09:28:08.475Z,8.40
2023-04-25T09:30:37.590Z,8.60
2023-04-25T09:33:20.744Z,8.90
2023-04-25T09:35:56.274Z,9.20
2023-04-25T09:38:49.458Z,9.40
2023-04-25T09:41:30.412Z,9.50
2023-04-25T09:44:01.973Z,9.60
2023-04-25T09:46:37.898Z,9.40
2023-04-25T09:49:09.361Z,9.30
2023-04-25T09:51:58.011Z,9.40
2023-04-25T09:54:28.110Z,9.60
2023-04-25T09:57:14.352Z,9.70
2023-04-25T09:59:46.164Z,9.60
2023-04-25T10:02:15.915Z,9.50
2023-04-25T10:04:48.502Z,9.20
2023-04-25T10:07:39.949Z,9.10
2023-04-25T10:10:14.530Z,9.20
2023-04-25T10:12:43.931Z,9.50
2023-04-25T10:15:11.930Z,9.80
2023-04-25T10:17:39.748Z,10.10
2023-04-25T10:20:11.843Z,10.10
2023-04-25T10:22:49.398Z,10.10
2023-04-25T10:25:16.678Z,10.00
2023-04-25T10:27:44.342Z,10.20
2023-04-25T10:30:16.647Z,10.20
2023-04-25T10:32:44.726Z,10.20
2023-04-25T10:35:20.150Z,10.40
2023-04-25T10:38:14.693Z,10.50
2023-04-25T10:40:41.741Z,10.60
2023-04-25T10:43:34.705Z,10.60
2023-04-25T10:46:01.991Z,10.60
2023-04-25T10:48:30.758Z,10.50
2023-04-25T10:51:16.810Z,10.30
2023-04-25T10:53:46.245Z,10.20
2023-04-25T10:56:21.345Z,10.20
2023-04-25T10:58:51.348Z,10.20
2023-04-25T11:01:26.469Z,10.20
2023-04-25T11:04:58.062Z,10.40
2023-04-25T11:07:36.107Z,10.50
2023-04-25T11:10:05.273Z,10.60
2023-04-25T11:12:33.405Z,10.80
2023-04-25T11:15:08.454Z,10.90
2023-04-25T11:17:35.782Z,10.80
2023-04-25T11:20:07.585Z,10.90
2023-04-25T11:22:35.110Z,11.10
2023-04-25T11:25:10.129Z,11.20
2023-04-25T11:27:58.301Z,11.20
2023-04-25T11:30:27.067Z,11.20
2023-04-25T11:32:54.387Z,11.30
2023-04-25T11:35:24.230Z,11.40
2023-04-25T11:38:03.675Z,11.50
2023-04-25T11:40:32.099Z,11.00
2023-04-25T11:43:01.715Z,10.80
2023-04-25T11:45:31.040Z,10.80
2023-04-25T11:48:37.648Z,11.00
2023-04-25T11:51:05.692Z,11.20
2023-04-25T11:57:28.039Z,11.20
2023-04-25T11:59:55.293Z,11.10
2023-04-25T12:02:27.386Z,11.10
2023-04-25T12:04:54.720Z,11.10
2023-04-25T12:07:23.832Z,11.20
2023-04-25T12:09:54.743Z,11.30
2023-04-25T12:12:21.732Z,11.40
2023-04-25T12:14:50.072Z,11.50
2023-04-25T12:17:20.393Z,11.40
2023-04-25T12:19:48.359Z,11.40
2023-04-25T12:22:26.031Z,11.40
2023-04-25T12:24:55.102Z,11.40
2023-04-25T12:27:22.687Z,11.50
2023-04-25T12:29:57.416Z,11.50
2023-04-25T12:32:24.869Z,11.40
2023-04-25T12:34:51.974Z,11.30
2023-04-25T12:37:19.382Z,11.40
2023-04-25T12:39:46.322Z,11.50
2023-04-25T12:42:13.560Z,11.60
2023-04-25T12:44:41.443Z,11.50
2023-04-25T12:47:08.803Z,11.30
2023-04-25T12:49:36.363Z,11.30
2023-04-25T12:52:03.595Z,11.30
2023-04-25T12:54:30.741Z,11.30
2023-04-25T12:56:58.330Z,11.40
2023-04-25T12:59:25.326Z,11.60
2023-04-25T13:01:52.411Z,11.70
2023-04-25T13:04:21.431Z,11.60
2023-04-25T13:07:03.419Z,11.70
2023-04-25T13:09:30.582Z,11.70
2023-04-25T13:11:59.367Z,11.60
2023-04-25T13:14:26.473Z,11.20
2023-04-25T13:16:53.596Z,10.90
2023-04-25T13:19:20.904Z,10.40
2023-04-25T13:21:47.917Z,10.10
2023-04-25T13:24:14.907Z,9.70
2023-04-25T13:26:41.971Z,9.40
2023-04-25T13:29:08.965Z,9.00
2023-04-25T13:31:36.213Z,8.80
2023-04-25T13:34:03.348Z,8.70
2023-04-25T13:36:30.599Z,8.60
2023-04-25T13:38:58.290Z,8.50
2023-04-25T13:41:33.217Z,8.40
2023-04-25T13:44:00.983Z,8.20
2023-04-25T13:46:44.891Z,8.10
2023-04-25T13:49:13.788Z,8.20
2023-04-25T13:51:44.632Z,8.10
2023-04-25T13:54:11.990Z,8.10
2023-04-25T13:56:39.680Z,8.10
2023-04-25T13:59:06.834Z,8.00
2023-04-25T14:01:35.575Z,8.10
2023-04-25T14:04:05.046Z,8.20
2023-04-25T14:06:33.206Z,8.40
2023-04-25T14:09:02.264Z,8.50
2023-04-25T14:11:29.339Z,8.50
2023-04-25T14:13:56.305Z,8.50
2023-04-25T14:16:24.484Z,8.40
2023-04-25T14:18:51.777Z,8.30
2023-04-25T14:21:18.828Z,8.20
2023-04-25T14:23:51.839Z,8.30
2023-04-25T14:26:19.426Z,8.30
2023-04-25T14:28:46.526Z,8.40
2023-04-25T14:31:13.581Z,8.40
2023-04-25T14:34:06.712Z,8.50
2023-04-25T14:36:34.731Z,8.40
2023-04-25T14:39:02.126Z,8.40
2023-04-25T14:41:29.307Z,8.40
2023-04-25T14:43:57.962Z,8.50
2023-04-25T14:46:25.525Z,8.40
2023-04-25T14:48:52.742Z,8.50
2023-04-25T14:51:20.231Z,8.50
2023-04-25T14:53:47.286Z,8.40
2023-04-25T14:56:14.553Z,8.40
2023-04-25T14:58:42.036Z,8.40
2023-04-25T15:01:11.362Z,8.50
2023-04-25T15:07:59.655Z,8.50
2023-04-25T15:10:38.352Z,8.50
2023-04-25T15:13:07.315Z,8.60
2023-04-25T15:15:53.237Z,8.70
2023-04-25T15:18:31.248Z,8.90
2023-04-25T15:20:59.398Z,9.10
2023-04-25T15:23:29.724Z,9.10
2023-04-25T15:25:57.558Z,9.10
2023-04-25T15:28:24.553Z,9.10
2023-04-25T15:30:51.681Z,9.20
2023-04-25T15:33:18.769Z,9.20
2023-04-25T15:35:46.108Z,9.30
2023-04-25T15:38:13.333Z,9.30
2023-04-25T15:40:41.292Z,9.30
2023-04-25T15:43:11.633Z,9.30
2023-04-25T15:45:38.696Z,9.30
2023-04-25T15:48:06.256Z,9.20
2023-04-25T15:50:33.562Z,9.10
2023-04-25T15:53:00.701Z,9.10
2023-04-25T15:55:27.912Z,9.00
2023-04-25T15:57:55.132Z,8.90
2023-04-25T16:00:22.981Z,8.80
2023-04-25T16:02:50.304Z,8.80
2023-04-25T16:05:18.477Z,8.60
2023-04-25T16:07:47.047Z,8.70
2023-04-25T16:10:17.220Z,8.70
2023-04-25T16:12:44.439Z,8.60
2023-04-25T16:15:11.786Z,8.50
2023-04-25T16:17:38.728Z,8.40
2023-04-25T16:20:15.266Z,8.50
2023-04-25T16:22:43.654Z,8.60
2023-04-25T16:25:12.546Z,8.60
2023-04-25T16:27:41.269Z,8.80
2023-04-25T16:30:10.288Z,8.90
2023-04-25T16:32:38.276Z,9.00
2023-04-25T16:35:05.765Z,8.80
2023-04-25T16:37:32.808Z,8.60
2023-04-25T16:39:59.805Z,8.50
2023-04-25T16:42:26.926Z,8.40
2023-04-25T16:44:53.916Z,8.40
2023-04-25T16:47:25.745Z,8.40
2023-04-25T16:49:53.358Z,8.40
2023-04-25T16:52:22.087Z,8.40
2023-04-25T16:54:49.230Z,8.40
2023-04-25T16:57:16.578Z,8.50
2023-04-25T16:59:43.573Z,8.60
2023-04-25T17:02:13.162Z,8.60
2023-04-25T17:04:40.913Z,8.40
2023-04-25T17:07:08.933Z,8.30
2023-04-25T17:09:36.444Z,8.30
2023-04-25T17:12:04.691Z,8.30
2023-04-25T17:14:40.318Z,8.30
2023-04-25T17:19:50.227Z,8.50
2023-04-25T17:22:18.167Z,8.60
2023-04-25T17:24:46.054Z,8.70
2023-04-25T17:27:13.078Z,8.70
2023-04-25T17:29:40.143Z,8.70
2023-04-25T17:32:07.505Z,8.80
2023-04-25T17:34:37.586Z,8.70
2023-04-25T17:37:55.314Z,8.60
2023-04-25T17:40:22.587Z,8.50
2023-04-25T17:42:50.297Z,8.30
2023-04-25T17:45:17.513Z,8.10
2023-04-25T17:47:44.585Z,8.10
2023-04-25T17:50:12.826Z,7.80
2023-04-25T17:52:39.913Z,7.70
2023-04-25T17:55:07.403Z,7.60
2023-04-25T17:57:34.619Z,7.60
2023-04-25T18:00:02.873Z,7.60
2023-04-25T18:02:39.730Z,7.60
2023-04-25T18:05:09.904Z,7.80
2023-04-25T18:07:37.335Z,7.80
2023-04-25T18:10:09.085Z,7.70
2023-04-25T18:12:37.177Z,7.70
2023-04-25T18:15:08.032Z,7.70
2023-04-25T18:17:40.164Z,7.60
2023-04-25T18:20:11.972Z,7.50
2023-04-25T18:22:39.147Z,7.50
2023-04-25T18:25:08.395Z,7.50
2023-04-25T18:27:35.699Z,7.40
2023-04-25T18:30:02.669Z,7.40
2023-04-25T18:32:29.970Z,7.40
2023-04-25T18:34:57.112Z,7.40
2023-04-25T18:37:24.137Z,7.40
2023-04-25T18:39:52.021Z,7.30
2023-04-25T18:42:20.211Z,7.30
2023-04-25T18:44:47.336Z,7.40
2023-04-25T18:47:14.710Z,7.40
2023-04-25T18:49:42.296Z,7.50
2023-04-25T18:52:12.308Z,7.60
2023-04-25T18:54:39.574Z,7.60
2023-04-25T18:57:06.574Z,7.70
2023-04-25T18:59:33.841Z,7.70
2023-04-25T19:02:02.106Z,7.70
2023-04-25T19:04:29.787Z,7.70
2023-04-25T19:06:56.923Z,7.60
2023-04-25T19:09:24.941Z,7.60
2023-04-25T19:12:56.024Z,7.60
2023-04-25T19:15:22.970Z,7.60
2023-04-25T19:17:50.092Z,7.50
2023-04-25T19:20:17.168Z,7.40
2023-04-25T19:22:44.109Z,7.40
2023-04-25T19:25:11.539Z,7.30
2023-04-25T19:27:39.087Z,7.30
2023-04-25T19:30:09.441Z,7.20
2023-04-25T19:32:37.676Z,7.20
2023-04-25T19:35:05.013Z,7.10
2023-04-25T19:37:32.290Z,7.10
2023-04-25T19:39:59.358Z,7.10
2023-04-25T19:42:26.434Z,7.10
2023-04-25T19:44:53.813Z,7.10
2023-04-25T19:47:20.800Z,7.00
2023-04-25T19:49:47.761Z,6.80
2023-04-25T19:52:16.363Z,6.60
2023-04-25T19:54:45.353Z,6.60
2023-04-25T19:57:13.561Z,6.60
2023-04-25T19:59:40.802Z,6.70
2023-04-25T20:02:10.852Z,6.80
2023-04-25T20:04:38.715Z,6.90
2023-04-25T20:07:05.720Z,6.90
2023-04-25T20:09:32.628Z,6.90
2023-04-25T20:11:59.610Z,7.00
2023-04-25T20:14:26.595Z,7.00
2023-04-25T20:16:53.999Z,7.00
2023-04-25T20:19:20.998Z,6.90
2023-04-25T20:21:47.992Z,6.90
2023-04-25T20:24:14.908Z,6.80
2023-04-25T20:26:41.874Z,6.80
2023-04-25T20:29:09.891Z,6.70
2023-04-25T20:31:37.201Z,6.70
2023-04-25T20:34:04.441Z,6.80
2023-04-25T20:36:32.420Z,6.80
2023-04-25T20:38:59.415Z,6.90
2023-04-25T20:41:52.745Z,6.80
2023-04-25T20:44:22.771Z,6.80
2023-04-25T20:46:51.705Z,6.70
2023-04-25T20:49:18.639Z,6.70
2023-04-25T20:51:45.893Z,6.70
2023-04-25T20:54:13.512Z,6.60
2023-04-25T20:56:40.546Z,6.60
2023-04-25T20:59:07.519Z,6.50
2023-04-25T21:01:35.434Z,6.40
2023-04-25T21:04:03.028Z,6.40
2023-04-25T21:06:30.632Z,6.30
2023-04-25T21:08:58.001Z,6.20
2023-04-25T21:11:26.621Z,6.30
2023-04-25T21:13:54.349Z,6.30
2023-04-25T21:16:21.852Z,6.20
2023-04-25T21:18:49.423Z,6.20
2023-04-25T21:21:17.107Z,6.10
2023-04-25T21:23:44.161Z,6.10
2023-04-25T21:26:11.154Z,6.10
2023-04-25T21:28:38.106Z,6.10
2023-04-25T21:31:05.358Z,6.10
2023-04-25T21:34:26.597Z,6.10
2023-04-25T21:36:53.562Z,6.00
2023-04-25T21:39:20.516Z,5.90
2023-04-25T21:41:48.479Z,5.80
2023-04-25T21:44:15.828Z,5.70
2023-04-25T21:46:43.063Z,5.60
2023-04-25T21:49:10.107Z,5.50
2023-04-25T21:51:37.060Z,5.50
2023-04-25T21:54:05.767Z,5.50
2023-04-25T21:56:33.337Z,5.40
2023-04-25T21:59:00.348Z,5.40
2023-04-25T22:01:28.561Z,5.40
2023-04-25T22:03:55.752Z,5.40
2023-04-25T22:06:22.915Z,5.40
2023-04-25T22:08:50.152Z,5.40
2023-04-25T22:11:17.459Z,5.40
2023-04-25T22:13:45.575Z,5.40
2023-04-25T22:16:12.737Z,5.40
2023-04-25T22:18:40.627Z,5.30
2023-04-25T22:21:08.824Z,5.30
2023-04-25T22:23:37.252Z,5.30
2023-04-25T22:26:04.976Z,5.30
2023-04-25T22:28:33.173Z,5.30
2023-04-25T22:31:00.264Z,5.30
2023-04-25T22:33:27.564Z,5.40
2023-04-25T22:35:55.804Z,5.50
2023-04-25T22:38:22.793Z,5.50
2023-04-25T22:40:49.784Z,5.40
2023-04-25T22:43:16.821Z,5.50
2023-04-25T22:45:43.813Z,5.50
2023-04-25T22:48:10.853Z,5.50
2023-04-25T22:50:40.507Z,5.50
2023-04-25T22:53:07.951Z,5.50
2023-04-25T22:55:36.831Z,5.60
2023-04-25T22:58:04.652Z,5.60
2023-04-25T23:00:34.461Z,5.60
2023-04-25T23:03:03.966Z,5.60
2023-04-25T23:05:32.862Z,5.50
2023-04-25T23:08:00.113Z,5.50
2023-04-25T23:10:28.613Z,5.50
2023-04-25T23:12:58.228Z,5.40
2023-04-25T23:15:31.053Z,5.40
2023-04-25T23:17:58.679Z,5.40
2023-04-25T23:20:26.250Z,5.40
2023-04-25T23:22:53.313Z,5.30
2023-04-25T23:25:20.888Z,5.30
2023-04-25T23:27:48.604Z,5.30
2023-04-25T23:30:15.955Z,5.30
2023-04-25T23:32:43.098Z,5.30
2023-04-25T23:35:10.397Z,5.30
2023-04-25T23:37:38.376Z,5.30
2023-04-25T23:40:12.843Z,5.30
2023-04-25T23:42:41.836Z,5.20
2023-04-25T23:45:09.636Z,5.20
2023-04-25T23:47:37.629Z,5.10
2023-04-25T23:50:05.409Z,5.10
2023-04-25T23:52:32.459Z,5.10
2023-04-25T23:54:59.449Z,5.10
2023-04-25T23:57:26.525Z,5.10
2023-04-25T23:59:53.581Z,5.10
